sensor_id;sensor_type;location;lat;lon;timestamp;temperature;humidity
43049;DHT22;28673;44.412;11.918;2023-09-08T00:01:44;20.10;91.60
43049;DHT22;28673;44.412;11.918;2023-09-08T00:04:10;20.10;91.50
43049;DHT22;28673;44.412;11.918;2023-09-08T00:06:37;20.10;91.60
43049;DHT22;28673;44.412;11.918;2023-09-08T00:09:03;20.00;91.60
43049;DHT22;28673;44.412;11.918;2023-09-08T00:11:29;20.00;91.60
43049;DHT22;28673;44.412;11.918;2023-09-08T00:13:55;20.00;91.60
43049;DHT22;28673;44.412;11.918;2023-09-08T00:16:21;20.00;91.90
43049;DHT22;28673;44.412;11.918;2023-09-08T00:18:46;19.90;91.70
43049;DHT22;28673;44.412;11.918;2023-09-08T00:21:12;20.00;91.70
43049;DHT22;28673;44.412;11.918;2023-09-08T00:23:38;19.90;91.70
43049;DHT22;28673;44.412;11.918;2023-09-08T00:26:04;19.90;91.70
43049;DHT22;28673;44.412;11.918;2023-09-08T00:28:30;19.90;91.70
43049;DHT22;28673;44.412;11.918;2023-09-08T00:30:55;19.90;91.60
43049;DHT22;28673;44.412;11.918;2023-09-08T00:33:24;19.90;91.70
43049;DHT22;28673;44.412;11.918;2023-09-08T00:35:50;19.90;91.60
43049;DHT22;28673;44.412;11.918;2023-09-08T00:38:16;19.80;91.70
43049;DHT22;28673;44.412;11.918;2023-09-08T00:40:42;19.90;91.70
43049;DHT22;28673;44.412;11.918;2023-09-08T00:43:08;19.90;91.80
43049;DHT22;28673;44.412;11.918;2023-09-08T00:45:39;19.90;91.70
43049;DHT22;28673;44.412;11.918;2023-09-08T00:48:06;19.90;91.70
43049;DHT22;28673;44.412;11.918;2023-09-08T00:50:33;19.80;91.60
43049;DHT22;28673;44.412;11.918;2023-09-08T00:52:59;19.80;91.70
43049;DHT22;28673;44.412;11.918;2023-09-08T00:55:25;19.70;91.70
43049;DHT22;28673;44.412;11.918;2023-09-08T00:57:51;19.70;91.80
43049;DHT22;28673;44.412;11.918;2023-09-08T01:00:17;19.70;91.80
43049;DHT22;28673;44.412;11.918;2023-09-08T01:02:43;19.70;91.80
43049;DHT22;28673;44.412;11.918;2023-09-08T01:05:11;19.70;91.90
43049;DHT22;28673;44.412;11.918;2023-09-08T01:07:37;19.70;91.90
43049;DHT22;28673;44.412;11.918;2023-09-08T01:10:03;19.70;91.90
43049;DHT22;28673;44.412;11.918;2023-09-08T01:12:31;19.70;91.90
43049;DHT22;28673;44.412;11.918;2023-09-08T01:14:58;19.70;91.90
43049;DHT22;28673;44.412;11.918;2023-09-08T01:17:25;19.70;91.90
43049;DHT22;28673;44.412;11.918;2023-09-08T01:19:55;19.70;92.00
43049;DHT22;28673;44.412;11.918;2023-09-08T01:23:19;19.60;92.00
43049;DHT22;28673;44.412;11.918;2023-09-08T01:25:26;19.60;92.00
43049;DHT22;28673;44.412;11.918;2023-09-08T01:27:54;19.60;91.90
43049;DHT22;28673;44.412;11.918;2023-09-08T01:30:21;19.60;92.00
43049;DHT22;28673;44.412;11.918;2023-09-08T01:32:49;19.60;92.00
43049;DHT22;28673;44.412;11.918;2023-09-08T01:35:15;19.60;92.00
43049;DHT22;28673;44.412;11.918;2023-09-08T01:37:48;19.50;92.00
43049;DHT22;28673;44.412;11.918;2023-09-08T01:40:15;19.50;92.20
43049;DHT22;28673;44.412;11.918;2023-09-08T01:42:42;19.40;92.10
43049;DHT22;28673;44.412;11.918;2023-09-08T01:45:08;19.40;92.20
43049;DHT22;28673;44.412;11.918;2023-09-08T01:47:35;19.40;92.10
43049;DHT22;28673;44.412;11.918;2023-09-08T01:50:01;19.40;92.20
43049;DHT22;28673;44.412;11.918;2023-09-08T01:52:27;19.40;92.20
43049;DHT22;28673;44.412;11.918;2023-09-08T01:54:54;19.40;92.20
43049;DHT22;28673;44.412;11.918;2023-09-08T01:57:21;19.40;92.30
43049;DHT22;28673;44.412;11.918;2023-09-08T01:59:47;19.40;92.30
43049;DHT22;28673;44.412;11.918;2023-09-08T02:02:13;19.40;92.40
43049;DHT22;28673;44.412;11.918;2023-09-08T02:04:40;19.30;92.40
43049;DHT22;28673;44.412;11.918;2023-09-08T02:07:05;19.30;92.50
43049;DHT22;28673;44.412;11.918;2023-09-08T02:09:33;19.30;92.50
43049;DHT22;28673;44.412;11.918;2023-09-08T02:11:59;19.30;92.50
43049;DHT22;28673;44.412;11.918;2023-09-08T02:14:25;19.30;92.50
43049;DHT22;28673;44.412;11.918;2023-09-08T02:16:51;19.30;92.50
43049;DHT22;28673;44.412;11.918;2023-09-08T02:19:17;19.30;92.50
43049;DHT22;28673;44.412;11.918;2023-09-08T02:21:43;19.30;92.60
43049;DHT22;28673;44.412;11.918;2023-09-08T02:24:09;19.30;92.50
43049;DHT22;28673;44.412;11.918;2023-09-08T02:26:35;19.30;92.60
43049;DHT22;28673;44.412;11.918;2023-09-08T02:29:01;19.30;92.70
43049;DHT22;28673;44.412;11.918;2023-09-08T02:31:28;19.20;92.60
43049;DHT22;28673;44.412;11.918;2023-09-08T02:33:56;19.20;92.60
43049;DHT22;28673;44.412;11.918;2023-09-08T02:36:22;19.20;92.70
43049;DHT22;28673;44.412;11.918;2023-09-08T02:38:53;19.20;92.70
43049;DHT22;28673;44.412;11.918;2023-09-08T02:41:19;19.20;92.70
43049;DHT22;28673;44.412;11.918;2023-09-08T02:43:45;19.20;92.70
43049;DHT22;28673;44.412;11.918;2023-09-08T02:46:11;19.20;92.80
43049;DHT22;28673;44.412;11.918;2023-09-08T02:48:38;19.20;92.80
43049;DHT22;28673;44.412;11.918;2023-09-08T02:51:04;19.20;92.80
43049;DHT22;28673;44.412;11.918;2023-09-08T02:53:30;19.20;92.90
43049;DHT22;28673;44.412;11.918;2023-09-08T02:55:56;19.10;92.90
43049;DHT22;28673;44.412;11.918;2023-09-08T02:58:23;19.10;92.90
43049;DHT22;28673;44.412;11.918;2023-09-08T03:00:49;19.20;93.00
43049;DHT22;28673;44.412;11.918;2023-09-08T03:03:15;19.20;93.00
43049;DHT22;28673;44.412;11.918;2023-09-08T03:05:41;19.10;93.00
43049;DHT22;28673;44.412;11.918;2023-09-08T03:08:07;19.10;93.00
43049;DHT22;28673;44.412;11.918;2023-09-08T03:10:33;19.10;93.10
43049;DHT22;28673;44.412;11.918;2023-09-08T03:13:06;19.10;93.10
43049;DHT22;28673;44.412;11.918;2023-09-08T03:15:32;19.10;93.10
43049;DHT22;28673;44.412;11.918;2023-09-08T03:17:59;19.10;93.20
43049;DHT22;28673;44.412;11.918;2023-09-08T03:20:25;19.10;93.20
43049;DHT22;28673;44.412;11.918;2023-09-08T03:22:54;19.10;93.20
43049;DHT22;28673;44.412;11.918;2023-09-08T03:25:21;19.10;93.20
43049;DHT22;28673;44.412;11.918;2023-09-08T03:27:47;19.10;93.20
43049;DHT22;28673;44.412;11.918;2023-09-08T03:30:13;19.10;93.30
43049;DHT22;28673;44.412;11.918;2023-09-08T03:32:39;19.10;93.30
43049;DHT22;28673;44.412;11.918;2023-09-08T03:35:05;19.10;93.30
43049;DHT22;28673;44.412;11.918;2023-09-08T03:37:34;19.10;93.40
43049;DHT22;28673;44.412;11.918;2023-09-08T03:40:00;19.10;93.40
43049;DHT22;28673;44.412;11.918;2023-09-08T03:42:26;19.10;93.50
43049;DHT22;28673;44.412;11.918;2023-09-08T03:44:52;19.10;93.50
43049;DHT22;28673;44.412;11.918;2023-09-08T03:47:18;19.10;93.60
43049;DHT22;28673;44.412;11.918;2023-09-08T03:49:44;19.10;93.70
43049;DHT22;28673;44.412;11.918;2023-09-08T03:52:09;19.10;93.70
43049;DHT22;28673;44.412;11.918;2023-09-08T03:54:35;19.10;93.70
43049;DHT22;28673;44.412;11.918;2023-09-08T03:57:03;19.10;93.70
43049;DHT22;28673;44.412;11.918;2023-09-08T03:59:29;19.10;93.70
43049;DHT22;28673;44.412;11.918;2023-09-08T04:01:54;19.10;93.80
43049;DHT22;28673;44.412;11.918;2023-09-08T04:04:20;19.10;93.80
43049;DHT22;28673;44.412;11.918;2023-09-08T04:06:46;19.00;93.80
43049;DHT22;28673;44.412;11.918;2023-09-08T04:09:16;19.00;93.90
43049;DHT22;28673;44.412;11.918;2023-09-08T04:11:42;19.00;93.90
43049;DHT22;28673;44.412;11.918;2023-09-08T04:14:08;19.00;93.90
43049;DHT22;28673;44.412;11.918;2023-09-08T04:16:35;19.00;93.90
43049;DHT22;28673;44.412;11.918;2023-09-08T04:19:01;19.00;93.90
43049;DHT22;28673;44.412;11.918;2023-09-08T04:21:26;19.00;93.90
43049;DHT22;28673;44.412;11.918;2023-09-08T04:23:52;19.00;93.90
43049;DHT22;28673;44.412;11.918;2023-09-08T04:26:21;19.00;94.00
43049;DHT22;28673;44.412;11.918;2023-09-08T04:28:48;19.00;94.00
43049;DHT22;28673;44.412;11.918;2023-09-08T04:31:14;19.00;94.00
43049;DHT22;28673;44.412;11.918;2023-09-08T04:33:40;19.00;94.00
43049;DHT22;28673;44.412;11.918;2023-09-08T04:36:06;19.00;94.00
43049;DHT22;28673;44.412;11.918;2023-09-08T04:38:32;19.00;94.10
43049;DHT22;28673;44.412;11.918;2023-09-08T04:40:58;19.00;94.10
43049;DHT22;28673;44.412;11.918;2023-09-08T04:43:25;19.00;94.10
43049;DHT22;28673;44.412;11.918;2023-09-08T04:45:51;19.00;94.20
43049;DHT22;28673;44.412;11.918;2023-09-08T04:48:17;18.90;94.20
43049;DHT22;28673;44.412;11.918;2023-09-08T04:50:42;18.90;94.20
43049;DHT22;28673;44.412;11.918;2023-09-08T04:53:09;18.90;94.20
43049;DHT22;28673;44.412;11.918;2023-09-08T04:55:35;18.90;94.30
43049;DHT22;28673;44.412;11.918;2023-09-08T04:58:03;18.90;94.30
43049;DHT22;28673;44.412;11.918;2023-09-08T05:00:37;18.90;94.40
43049;DHT22;28673;44.412;11.918;2023-09-08T05:03:03;18.90;94.40
43049;DHT22;28673;44.412;11.918;2023-09-08T05:05:29;18.80;94.40
43049;DHT22;28673;44.412;11.918;2023-09-08T05:07:58;18.80;94.50
43049;DHT22;28673;44.412;11.918;2023-09-08T05:10:25;18.80;94.70
43049;DHT22;28673;44.412;11.918;2023-09-08T05:12:52;18.80;94.70
43049;DHT22;28673;44.412;11.918;2023-09-08T05:15:20;18.80;94.60
43049;DHT22;28673;44.412;11.918;2023-09-08T05:17:51;18.80;94.60
43049;DHT22;28673;44.412;11.918;2023-09-08T05:20:19;18.80;94.60
43049;DHT22;28673;44.412;11.918;2023-09-08T05:22:45;18.80;94.60
43049;DHT22;28673;44.412;11.918;2023-09-08T05:25:12;18.80;94.60
43049;DHT22;28673;44.412;11.918;2023-09-08T05:27:41;18.80;94.80
43049;DHT22;28673;44.412;11.918;2023-09-08T05:30:08;18.80;94.70
43049;DHT22;28673;44.412;11.918;2023-09-08T05:32:36;18.80;94.80
43049;DHT22;28673;44.412;11.918;2023-09-08T05:35:03;18.80;94.80
43049;DHT22;28673;44.412;11.918;2023-09-08T05:37:30;18.80;94.80
43049;DHT22;28673;44.412;11.918;2023-09-08T05:39:56;18.80;94.80
43049;DHT22;28673;44.412;11.918;2023-09-08T05:42:28;18.90;94.80
43049;DHT22;28673;44.412;11.918;2023-09-08T05:44:54;18.90;94.90
43049;DHT22;28673;44.412;11.918;2023-09-08T05:47:21;18.90;94.90
43049;DHT22;28673;44.412;11.918;2023-09-08T05:49:51;18.90;94.90
43049;DHT22;28673;44.412;11.918;2023-09-08T05:52:18;19.00;95.00
43049;DHT22;28673;44.412;11.918;2023-09-08T05:54:45;19.00;95.00
43049;DHT22;28673;44.412;11.918;2023-09-08T05:57:12;19.00;95.00
43049;DHT22;28673;44.412;11.918;2023-09-08T05:59:38;19.10;95.00
43049;DHT22;28673;44.412;11.918;2023-09-08T06:02:04;19.10;95.00
43049;DHT22;28673;44.412;11.918;2023-09-08T06:04:30;19.10;95.00
43049;DHT22;28673;44.412;11.918;2023-09-08T06:06:58;19.10;95.00
43049;DHT22;28673;44.412;11.918;2023-09-08T06:09:25;19.20;95.00
43049;DHT22;28673;44.412;11.918;2023-09-08T06:11:51;19.30;95.10
43049;DHT22;28673;44.412;11.918;2023-09-08T06:14:17;19.30;95.10
43049;DHT22;28673;44.412;11.918;2023-09-08T06:16:46;19.30;95.10
43049;DHT22;28673;44.412;11.918;2023-09-08T06:19:12;19.40;95.10
43049;DHT22;28673;44.412;11.918;2023-09-08T06:21:39;19.50;95.20
43049;DHT22;28673;44.412;11.918;2023-09-08T06:24:06;19.50;95.20
43049;DHT22;28673;44.412;11.918;2023-09-08T06:26:33;19.60;95.30
43049;DHT22;28673;44.412;11.918;2023-09-08T06:29:00;19.70;95.20
43049;DHT22;28673;44.412;11.918;2023-09-08T06:31:27;19.80;95.30
43049;DHT22;28673;44.412;11.918;2023-09-08T06:33:53;19.80;95.30
43049;DHT22;28673;44.412;11.918;2023-09-08T06:36:20;19.80;95.40
43049;DHT22;28673;44.412;11.918;2023-09-08T06:38:47;19.90;95.40
43049;DHT22;28673;44.412;11.918;2023-09-08T06:41:13;20.00;95.60
43049;DHT22;28673;44.412;11.918;2023-09-08T06:43:40;20.10;95.40
43049;DHT22;28673;44.412;11.918;2023-09-08T06:46:13;20.20;95.50
43049;DHT22;28673;44.412;11.918;2023-09-08T06:48:40;20.30;95.40
43049;DHT22;28673;44.412;11.918;2023-09-08T06:51:06;20.30;95.30
43049;DHT22;28673;44.412;11.918;2023-09-08T06:53:33;20.40;95.40
43049;DHT22;28673;44.412;11.918;2023-09-08T06:55:59;20.50;95.30
43049;DHT22;28673;44.412;11.918;2023-09-08T06:58:27;20.60;95.20
43049;DHT22;28673;44.412;11.918;2023-09-08T07:00:53;20.70;95.20
43049;DHT22;28673;44.412;11.918;2023-09-08T07:03:21;20.70;95.20
43049;DHT22;28673;44.412;11.918;2023-09-08T07:05:50;20.80;95.10
43049;DHT22;28673;44.412;11.918;2023-09-08T07:08:17;20.90;95.10
43049;DHT22;28673;44.412;11.918;2023-09-08T07:10:44;21.00;95.00
43049;DHT22;28673;44.412;11.918;2023-09-08T07:13:10;21.10;94.90
43049;DHT22;28673;44.412;11.918;2023-09-08T07:15:38;21.20;94.80
43049;DHT22;28673;44.412;11.918;2023-09-08T07:18:04;21.20;94.80
43049;DHT22;28673;44.412;11.918;2023-09-08T07:20:30;21.30;94.70
43049;DHT22;28673;44.412;11.918;2023-09-08T07:22:56;21.40;94.70
43049;DHT22;28673;44.412;11.918;2023-09-08T07:25:24;21.50;94.60
43049;DHT22;28673;44.412;11.918;2023-09-08T07:27:50;21.60;94.50
43049;DHT22;28673;44.412;11.918;2023-09-08T07:30:20;21.70;94.40
43049;DHT22;28673;44.412;11.918;2023-09-08T07:32:46;21.80;94.30
43049;DHT22;28673;44.412;11.918;2023-09-08T07:35:12;21.90;94.30
43049;DHT22;28673;44.412;11.918;2023-09-08T07:37:40;21.90;94.30
43049;DHT22;28673;44.412;11.918;2023-09-08T07:40:11;22.10;94.30
43049;DHT22;28673;44.412;11.918;2023-09-08T07:42:37;22.10;94.20
43049;DHT22;28673;44.412;11.918;2023-09-08T07:45:04;22.20;94.10
43049;DHT22;28673;44.412;11.918;2023-09-08T07:47:30;22.30;94.10
43049;DHT22;28673;44.412;11.918;2023-09-08T07:50:22;22.40;94.10
43049;DHT22;28673;44.412;11.918;2023-09-08T07:52:50;22.50;94.00
43049;DHT22;28673;44.412;11.918;2023-09-08T07:55:16;22.60;93.90
43049;DHT22;28673;44.412;11.918;2023-09-08T07:57:43;22.70;93.70
43049;DHT22;28673;44.412;11.918;2023-09-08T08:00:12;22.80;93.60
43049;DHT22;28673;44.412;11.918;2023-09-08T08:02:41;22.90;93.60
43049;DHT22;28673;44.412;11.918;2023-09-08T08:05:07;23.00;93.60
43049;DHT22;28673;44.412;11.918;2023-09-08T08:07:33;23.10;93.70
43049;DHT22;28673;44.412;11.918;2023-09-08T08:09:59;23.10;93.60
43049;DHT22;28673;44.412;11.918;2023-09-08T08:12:25;23.20;93.60
43049;DHT22;28673;44.412;11.918;2023-09-08T08:14:51;23.30;93.70
43049;DHT22;28673;44.412;11.918;2023-09-08T08:17:17;23.40;93.60
43049;DHT22;28673;44.412;11.918;2023-09-08T08:19:45;23.50;93.50
43049;DHT22;28673;44.412;11.918;2023-09-08T08:22:11;23.60;93.40
43049;DHT22;28673;44.412;11.918;2023-09-08T08:24:36;23.70;93.30
43049;DHT22;28673;44.412;11.918;2023-09-08T08:27:02;23.80;93.40
43049;DHT22;28673;44.412;11.918;2023-09-08T08:29:29;23.90;93.30
43049;DHT22;28673;44.412;11.918;2023-09-08T08:31:55;24.00;93.20
43049;DHT22;28673;44.412;11.918;2023-09-08T08:34:21;24.10;93.40
43049;DHT22;28673;44.412;11.918;2023-09-08T08:36:47;24.30;93.10
43049;DHT22;28673;44.412;11.918;2023-09-08T08:39:13;24.50;93.00
43049;DHT22;28673;44.412;11.918;2023-09-08T08:41:40;24.80;92.80
43049;DHT22;28673;44.412;11.918;2023-09-08T08:44:07;25.10;92.60
43049;DHT22;28673;44.412;11.918;2023-09-08T08:46:37;25.50;92.40
43049;DHT22;28673;44.412;11.918;2023-09-08T08:49:03;25.80;92.00
43049;DHT22;28673;44.412;11.918;2023-09-08T08:51:33;26.20;91.80
43049;DHT22;28673;44.412;11.918;2023-09-08T08:54:01;26.50;91.50
43049;DHT22;28673;44.412;11.918;2023-09-08T08:56:31;26.80;91.20
43049;DHT22;28673;44.412;11.918;2023-09-08T08:59:01;27.00;91.00
43049;DHT22;28673;44.412;11.918;2023-09-08T09:01:28;27.40;90.70
43049;DHT22;28673;44.412;11.918;2023-09-08T09:03:55;27.70;90.10
43049;DHT22;28673;44.412;11.918;2023-09-08T09:06:22;28.00;90.10
43049;DHT22;28673;44.412;11.918;2023-09-08T09:08:48;28.30;89.90
43049;DHT22;28673;44.412;11.918;2023-09-08T09:11:14;28.60;88.70
43049;DHT22;28673;44.412;11.918;2023-09-08T09:13:40;28.80;88.00
43049;DHT22;28673;44.412;11.918;2023-09-08T09:16:06;28.90;87.80
43049;DHT22;28673;44.412;11.918;2023-09-08T09:18:57;29.20;87.80
43049;DHT22;28673;44.412;11.918;2023-09-08T09:21:23;29.50;86.80
43049;DHT22;28673;44.412;11.918;2023-09-08T09:23:50;29.80;86.40
43049;DHT22;28673;44.412;11.918;2023-09-08T09:26:26;30.10;84.40
43049;DHT22;28673;44.412;11.918;2023-09-08T09:28:52;30.30;84.40
43049;DHT22;28673;44.412;11.918;2023-09-08T09:31:23;30.40;84.30
43049;DHT22;28673;44.412;11.918;2023-09-08T09:34:04;30.70;82.90
43049;DHT22;28673;44.412;11.918;2023-09-08T09:36:31;31.00;83.40
43049;DHT22;28673;44.412;11.918;2023-09-08T09:39:00;31.20;82.60
43049;DHT22;28673;44.412;11.918;2023-09-08T09:41:29;31.40;81.70
43049;DHT22;28673;44.412;11.918;2023-09-08T09:43:59;31.60;81.20
43049;DHT22;28673;44.412;11.918;2023-09-08T09:46:28;31.80;80.90
43049;DHT22;28673;44.412;11.918;2023-09-08T09:48:54;32.00;78.40
43049;DHT22;28673;44.412;11.918;2023-09-08T09:51:22;32.20;80.00
43049;DHT22;28673;44.412;11.918;2023-09-08T09:53:50;32.40;79.20
43049;DHT22;28673;44.412;11.918;2023-09-08T09:56:20;32.50;78.80
43049;DHT22;28673;44.412;11.918;2023-09-08T09:58:48;32.70;78.40
43049;DHT22;28673;44.412;11.918;2023-09-08T10:01:15;32.80;77.10
43049;DHT22;28673;44.412;11.918;2023-09-08T10:03:42;32.90;77.00
43049;DHT22;28673;44.412;11.918;2023-09-08T10:06:09;33.00;76.80
43049;DHT22;28673;44.412;11.918;2023-09-08T10:08:35;33.20;76.30
43049;DHT22;28673;44.412;11.918;2023-09-08T10:11:07;33.20;75.60
43049;DHT22;28673;44.412;11.918;2023-09-08T10:13:44;33.30;75.00
43049;DHT22;28673;44.412;11.918;2023-09-08T10:16:13;33.50;75.20
43049;DHT22;28673;44.412;11.918;2023-09-08T10:18:44;33.70;74.10
43049;DHT22;28673;44.412;11.918;2023-09-08T10:21:13;33.80;74.10
43049;DHT22;28673;44.412;11.918;2023-09-08T10:23:44;34.00;73.80
43049;DHT22;28673;44.412;11.918;2023-09-08T10:26:16;34.10;73.10
43049;DHT22;28673;44.412;11.918;2023-09-08T10:28:44;34.20;73.40
43049;DHT22;28673;44.412;11.918;2023-09-08T10:31:10;34.40;72.40
43049;DHT22;28673;44.412;11.918;2023-09-08T10:33:37;34.40;72.40
43049;DHT22;28673;44.412;11.918;2023-09-08T10:36:04;34.50;72.00
43049;DHT22;28673;44.412;11.918;2023-09-08T10:38:34;34.70;72.20
43049;DHT22;28673;44.412;11.918;2023-09-08T10:43:46;34.90;70.50
43049;DHT22;28673;44.412;11.918;2023-09-08T10:46:21;34.90;69.60
43049;DHT22;28673;44.412;11.918;2023-09-08T10:48:48;34.80;70.00
43049;DHT22;28673;44.412;11.918;2023-09-08T10:51:14;34.90;70.40
43049;DHT22;28673;44.412;11.918;2023-09-08T10:53:41;34.90;70.00
43049;DHT22;28673;44.412;11.918;2023-09-08T10:56:07;35.10;70.30
43049;DHT22;28673;44.412;11.918;2023-09-08T10:58:35;35.40;70.20
43049;DHT22;28673;44.412;11.918;2023-09-08T11:01:03;35.50;69.30
43049;DHT22;28673;44.412;11.918;2023-09-08T11:06:06;35.50;67.90
43049;DHT22;28673;44.412;11.918;2023-09-08T11:08:38;35.40;68.50
43049;DHT22;28673;44.412;11.918;2023-09-08T11:11:04;35.60;68.10
43049;DHT22;28673;44.412;11.918;2023-09-08T11:13:30;35.60;68.90
43049;DHT22;28673;44.412;11.918;2023-09-08T11:15:56;35.70;68.80
43049;DHT22;28673;44.412;11.918;2023-09-08T11:18:40;35.80;68.50
43049;DHT22;28673;44.412;11.918;2023-09-08T11:21:08;36.10;68.00
43049;DHT22;28673;44.412;11.918;2023-09-08T11:23:35;36.40;68.10
43049;DHT22;28673;44.412;11.918;2023-09-08T11:26:01;36.60;67.40
43049;DHT22;28673;44.412;11.918;2023-09-08T11:28:28;36.60;66.80
43049;DHT22;28673;44.412;11.918;2023-09-08T11:30:57;36.40;66.60
43049;DHT22;28673;44.412;11.918;2023-09-08T11:33:24;36.40;65.90
43049;DHT22;28673;44.412;11.918;2023-09-08T11:35:51;36.20;66.40
43049;DHT22;28673;44.412;11.918;2023-09-08T11:38:28;36.20;66.70
43049;DHT22;28673;44.412;11.918;2023-09-08T11:40:56;36.30;66.50
43049;DHT22;28673;44.412;11.918;2023-09-08T11:43:23;36.50;67.00
43049;DHT22;28673;44.412;11.918;2023-09-08T11:45:49;36.90;66.20
43049;DHT22;28673;44.412;11.918;2023-09-08T11:48:15;37.10;65.60
43049;DHT22;28673;44.412;11.918;2023-09-08T11:50:42;37.00;65.10
43049;DHT22;28673;44.412;11.918;2023-09-08T11:53:09;37.00;65.20
43049;DHT22;28673;44.412;11.918;2023-09-08T11:55:35;37.10;65.30
43049;DHT22;28673;44.412;11.918;2023-09-08T11:58:05;37.30;65.20
43049;DHT22;28673;44.412;11.918;2023-09-08T12:00:31;37.50;65.70
43049;DHT22;28673;44.412;11.918;2023-09-08T12:03:10;37.70;65.10
43049;DHT22;28673;44.412;11.918;2023-09-08T12:05:39;37.80;64.60
43049;DHT22;28673;44.412;11.918;2023-09-08T12:08:10;38.00;64.50
43049;DHT22;28673;44.412;11.918;2023-09-08T12:10:40;37.90;63.70
43049;DHT22;28673;44.412;11.918;2023-09-08T12:13:07;37.80;63.80
43049;DHT22;28673;44.412;11.918;2023-09-08T12:15:40;38.00;64.40
43049;DHT22;28673;44.412;11.918;2023-09-08T12:18:08;38.10;63.00
43049;DHT22;28673;44.412;11.918;2023-09-08T12:20:35;38.30;63.80
43049;DHT22;28673;44.412;11.918;2023-09-08T12:23:04;38.30;63.30
43049;DHT22;28673;44.412;11.918;2023-09-08T12:25:30;38.30;63.40
43049;DHT22;28673;44.412;11.918;2023-09-08T12:28:00;38.60;63.30
43049;DHT22;28673;44.412;11.918;2023-09-08T12:30:31;38.60;63.10
43049;DHT22;28673;44.412;11.918;2023-09-08T12:32:59;38.80;62.80
43049;DHT22;28673;44.412;11.918;2023-09-08T12:35:29;38.70;62.00
43049;DHT22;28673;44.412;11.918;2023-09-08T12:38:00;38.60;61.90
43049;DHT22;28673;44.412;11.918;2023-09-08T12:40:30;38.70;62.10
43049;DHT22;28673;44.412;11.918;2023-09-08T12:42:59;38.90;62.10
43049;DHT22;28673;44.412;11.918;2023-09-08T12:45:26;38.80;61.40
43049;DHT22;28673;44.412;11.918;2023-09-08T12:47:53;38.90;62.00
43049;DHT22;28673;44.412;11.918;2023-09-08T12:50:20;38.90;61.80
43049;DHT22;28673;44.412;11.918;2023-09-08T12:52:46;39.00;60.80
43049;DHT22;28673;44.412;11.918;2023-09-08T12:55:12;38.90;62.30
43049;DHT22;28673;44.412;11.918;2023-09-08T12:57:38;38.80;61.80
43049;DHT22;28673;44.412;11.918;2023-09-08T13:00:05;38.80;61.50
43049;DHT22;28673;44.412;11.918;2023-09-08T13:02:34;38.80;61.50
43049;DHT22;28673;44.412;11.918;2023-09-08T13:05:01;38.80;61.30
43049;DHT22;28673;44.412;11.918;2023-09-08T13:07:27;38.80;61.40
43049;DHT22;28673;44.412;11.918;2023-09-08T13:09:53;38.80;61.40
43049;DHT22;28673;44.412;11.918;2023-09-08T13:12:19;38.70;62.20
43049;DHT22;28673;44.412;11.918;2023-09-08T13:14:44;38.80;60.90
43049;DHT22;28673;44.412;11.918;2023-09-08T13:17:11;38.50;60.30
43049;DHT22;28673;44.412;11.918;2023-09-08T13:19:37;38.20;60.80
43049;DHT22;28673;44.412;11.918;2023-09-08T13:22:06;38.00;60.80
43049;DHT22;28673;44.412;11.918;2023-09-08T13:24:32;37.50;61.30
43049;DHT22;28673;44.412;11.918;2023-09-08T13:27:00;37.20;60.30
43049;DHT22;28673;44.412;11.918;2023-09-08T13:29:26;36.80;61.60
43049;DHT22;28673;44.412;11.918;2023-09-08T13:31:55;36.50;61.50
43049;DHT22;28673;44.412;11.918;2023-09-08T13:34:22;36.10;61.10
43049;DHT22;28673;44.412;11.918;2023-09-08T13:36:48;35.90;61.70
43049;DHT22;28673;44.412;11.918;2023-09-08T13:39:14;35.70;62.00
43049;DHT22;28673;44.412;11.918;2023-09-08T13:41:55;35.50;61.30
43049;DHT22;28673;44.412;11.918;2023-09-08T13:44:23;35.50;61.80
43049;DHT22;28673;44.412;11.918;2023-09-08T13:46:50;35.50;61.50
43049;DHT22;28673;44.412;11.918;2023-09-08T13:49:16;35.50;61.50
43049;DHT22;28673;44.412;11.918;2023-09-08T13:51:42;35.60;61.00
43049;DHT22;28673;44.412;11.918;2023-09-08T13:54:10;35.60;61.70
43049;DHT22;28673;44.412;11.918;2023-09-08T13:56:38;35.80;61.80
43049;DHT22;28673;44.412;11.918;2023-09-08T13:59:05;35.90;61.70
43049;DHT22;28673;44.412;11.918;2023-09-08T14:01:36;36.20;62.10
43049;DHT22;28673;44.412;11.918;2023-09-08T14:04:03;36.50;61.30
43049;DHT22;28673;44.412;11.918;2023-09-08T14:06:32;36.80;60.90
43049;DHT22;28673;44.412;11.918;2023-09-08T14:08:58;37.00;60.20
43049;DHT22;28673;44.412;11.918;2023-09-08T14:11:23;37.10;61.00
43049;DHT22;28673;44.412;11.918;2023-09-08T14:13:50;37.10;60.60
43049;DHT22;28673;44.412;11.918;2023-09-08T14:16:17;36.70;60.20
43049;DHT22;28673;44.412;11.918;2023-09-08T14:18:43;36.50;60.80
43049;DHT22;28673;44.412;11.918;2023-09-08T14:21:09;36.40;60.80
43049;DHT22;28673;44.412;11.918;2023-09-08T14:23:35;36.30;60.70
43049;DHT22;28673;44.412;11.918;2023-09-08T14:26:03;36.30;60.70
43049;DHT22;28673;44.412;11.918;2023-09-08T14:28:28;36.30;60.80
43049;DHT22;28673;44.412;11.918;2023-09-08T14:30:58;36.30;61.00
43049;DHT22;28673;44.412;11.918;2023-09-08T14:33:24;36.30;60.60
43049;DHT22;28673;44.412;11.918;2023-09-08T14:35:50;36.10;60.40
43049;DHT22;28673;44.412;11.918;2023-09-08T14:38:20;36.00;60.10
43049;DHT22;28673;44.412;11.918;2023-09-08T14:41:00;35.80;60.00
43049;DHT22;28673;44.412;11.918;2023-09-08T14:43:27;35.80;59.80
43049;DHT22;28673;44.412;11.918;2023-09-08T14:45:54;35.80;60.50
43049;DHT22;28673;44.412;11.918;2023-09-08T14:48:20;35.80;59.30
43049;DHT22;28673;44.412;11.918;2023-09-08T14:50:46;35.70;60.20
43049;DHT22;28673;44.412;11.918;2023-09-08T14:53:12;35.60;60.10
43049;DHT22;28673;44.412;11.918;2023-09-08T14:55:38;35.50;59.80
43049;DHT22;28673;44.412;11.918;2023-09-08T14:58:04;35.70;60.10
43049;DHT22;28673;44.412;11.918;2023-09-08T15:00:30;35.70;59.10
43049;DHT22;28673;44.412;11.918;2023-09-08T15:02:56;35.70;59.20
43049;DHT22;28673;44.412;11.918;2023-09-08T15:05:22;35.60;58.70
43049;DHT22;28673;44.412;11.918;2023-09-08T15:07:48;35.60;59.00
43049;DHT22;28673;44.412;11.918;2023-09-08T15:10:15;35.50;59.10
43049;DHT22;28673;44.412;11.918;2023-09-08T15:12:41;35.40;58.80
43049;DHT22;28673;44.412;11.918;2023-09-08T15:15:07;35.30;58.70
43049;DHT22;28673;44.412;11.918;2023-09-08T15:17:33;35.20;59.10
43049;DHT22;28673;44.412;11.918;2023-09-08T15:19:59;35.20;59.10
43049;DHT22;28673;44.412;11.918;2023-09-08T15:22:25;35.10;58.70